BKI weather

Kota Kinabalu International Airport
Kota Kinabalu, Sabah, Malaysia

Public forecast

Using degrees Celsius for public forecast. Weather courtesy of forecast.io.

METAR (pilot weather report)

Retrieved 2019/04/26 09:30 UTC (19 minutes ago):

WBKK 260930Z 31003KT 250V360 9999 FEW014 FEW016CB SCT140 BKN270 31/27 Q1005 NOSIG

TAF (pilot weather forecast)

Retrieved 2019/04/26 06:27 UTC (3 hours ago):

TAF WBKK 260500Z 2606/2706 34008KT 9999 FEW014 TEMPO 2608/2612 4000 TSRA FEW013 FEW016CB SCT040 BECMG 2610/2612 14005KT